createdAt,value
2023-01-04T00:01:54.396Z,42.20
2023-01-04T00:04:21.186Z,40.20
2023-01-04T00:06:47.914Z,43.78
2023-01-04T00:09:14.622Z,38.58
2023-01-04T00:11:41.318Z,44.20
2023-01-04T00:14:10.568Z,43.95
2023-01-04T00:16:37.350Z,46.33
2023-01-04T00:19:04.110Z,52.30
2023-01-04T00:21:31.963Z,47.67
2023-01-04T00:24:00.695Z,48.42
2023-01-04T00:26:31.645Z,41.97
2023-01-04T00:29:05.916Z,45.22
2023-01-04T00:31:33.360Z,41.08
2023-01-04T00:34:01.702Z,42.95
2023-01-04T00:36:28.792Z,43.30
2023-01-04T00:39:08.574Z,44.00
2023-01-04T00:44:28.982Z,41.15
2023-01-04T00:46:55.841Z,40.33
2023-01-04T00:49:22.544Z,38.80
2023-01-04T00:51:49.581Z,39.67
2023-01-04T00:54:16.848Z,38.03
2023-01-04T00:56:46.989Z,35.97
2023-01-04T00:59:15.511Z,41.97
2023-01-04T01:01:42.713Z,39.42
2023-01-04T01:04:12.789Z,41.10
2023-01-04T01:06:41.273Z,39.50
2023-01-04T01:09:09.992Z,41.80
2023-01-04T01:11:38.413Z,46.42
2023-01-04T01:14:05.290Z,49.97
2023-01-04T01:16:53.673Z,44.83
2023-01-04T01:19:18.642Z,42.65
2023-01-04T01:21:45.375Z,42.67
2023-01-04T01:24:16.860Z,42.17
2023-01-04T01:26:43.543Z,42.92
2023-01-04T01:29:10.273Z,40.90
2023-01-04T01:31:37.095Z,46.50
2023-01-04T01:34:04.228Z,42.70
2023-01-04T01:36:30.941Z,44.45
2023-01-04T01:38:57.605Z,43.92
2023-01-04T01:41:34.548Z,41.05
2023-01-04T01:44:04.744Z,40.60
2023-01-04T01:46:41.911Z,42.92
2023-01-04T01:49:34.351Z,39.80
2023-01-04T01:52:05.353Z,37.35
2023-01-04T01:54:44.478Z,41.05
2023-01-04T01:57:15.255Z,38.90
2023-01-04T01:59:43.131Z,32.03
2023-01-04T02:02:11.271Z,38.63
2023-01-04T02:04:40.883Z,34.75
2023-01-04T02:07:08.204Z,38.08
2023-01-04T02:09:35.540Z,38.70
2023-01-04T02:12:02.240Z,37.90
2023-01-04T02:14:29.358Z,36.58
2023-01-04T02:16:59.247Z,40.28
2023-01-04T02:19:38.005Z,46.13
2023-01-04T02:22:32.799Z,46.58
2023-01-04T02:25:24.409Z,44.05
2023-01-04T02:28:03.240Z,52.75
2023-01-04T02:30:45.115Z,55.72
2023-01-04T02:33:26.398Z,41.80
2023-01-04T02:36:08.210Z,55.65
2023-01-04T02:38:42.794Z,46.08
2023-01-04T02:41:15.923Z,48.42
2023-01-04T02:44:11.959Z,57.88
2023-01-04T02:46:44.143Z,50.20
2023-01-04T02:49:29.618Z,55.45
2023-01-04T02:51:56.311Z,57.05
2023-01-04T02:54:27.278Z,55.10
2023-01-04T02:57:04.889Z,49.25
2023-01-04T02:59:45.096Z,45.55
2023-01-04T03:03:08.012Z,48.92
2023-01-04T03:06:15.051Z,52.40
2023-01-04T03:08:41.693Z,40.97
2023-01-04T03:11:32.409Z,45.55
2023-01-04T03:14:32.032Z,45.63
2023-01-04T03:17:03.701Z,54.15
2023-01-04T03:19:50.492Z,41.78
2023-01-04T03:22:39.213Z,55.00
2023-01-04T03:25:27.043Z,45.05
2023-01-04T03:31:04.911Z,55.92
2023-01-04T03:33:50.569Z,46.05
2023-01-04T03:36:26.222Z,47.88
2023-01-04T03:39:18.345Z,47.05
2023-01-04T03:42:07.554Z,45.13
2023-01-04T03:45:01.705Z,50.30
2023-01-04T03:47:56.842Z,50.35
2023-01-04T03:50:29.380Z,50.03
2023-01-04T03:52:56.948Z,48.67
2023-01-04T03:55:25.547Z,49.00
2023-01-04T03:57:52.594Z,45.45
2023-01-04T04:00:19.730Z,55.72
2023-01-04T04:02:47.848Z,42.75
2023-01-04T04:05:37.446Z,40.45
2023-01-04T04:08:23.025Z,47.05
2023-01-04T04:10:49.730Z,41.42
2023-01-04T04:13:16.371Z,49.35
2023-01-04T04:15:43.152Z,51.88
2023-01-04T04:18:09.986Z,35.17
2023-01-04T04:20:38.393Z,36.15
2023-01-04T04:23:05.112Z,34.13
2023-01-04T04:25:33.209Z,28.15
2023-01-04T04:28:00.016Z,31.98
2023-01-04T04:30:26.734Z,34.70
2023-01-04T04:32:53.396Z,35.58
2023-01-04T04:35:20.064Z,29.75
2023-01-04T04:37:48.796Z,28.73
2023-01-04T04:40:34.029Z,31.15
2023-01-04T04:43:00.677Z,29.95
2023-01-04T04:45:27.409Z,30.02
2023-01-04T04:47:54.369Z,27.92
2023-01-04T04:50:21.109Z,27.70
2023-01-04T04:52:54.072Z,27.30
2023-01-04T04:55:22.775Z,31.42
2023-01-04T04:57:49.460Z,31.48
2023-01-04T05:00:16.572Z,31.17
2023-01-04T05:02:43.833Z,33.40
2023-01-04T05:05:10.630Z,29.13
2023-01-04T05:07:37.328Z,32.55
2023-01-04T05:10:04.377Z,33.20
2023-01-04T05:12:54.346Z,30.02
2023-01-04T05:15:24.510Z,28.92
2023-01-04T05:17:51.198Z,31.95
2023-01-04T05:20:17.952Z,36.00
2023-01-04T05:22:44.633Z,36.05
2023-01-04T05:25:12.408Z,26.65
2023-01-04T05:27:39.244Z,29.63
2023-01-04T05:30:24.934Z,29.52
2023-01-04T05:32:52.544Z,26.52
2023-01-04T05:35:19.169Z,28.17
2023-01-04T05:37:45.800Z,26.20
2023-01-04T05:40:12.615Z,27.15
2023-01-04T05:42:39.289Z,27.83
2023-01-04T05:45:06.545Z,28.77
2023-01-04T05:47:33.894Z,28.15
2023-01-04T05:50:00.941Z,27.30
2023-01-04T05:52:28.116Z,37.33
2023-01-04T05:54:55.908Z,44.75
2023-01-04T05:57:22.706Z,52.00
2023-01-04T05:59:49.474Z,58.33
2023-01-04T06:02:19.013Z,53.35
2023-01-04T06:04:46.098Z,51.30
2023-01-04T06:07:13.137Z,60.70
2023-01-04T06:09:40.235Z,64.07
2023-01-04T06:12:07.572Z,73.30
2023-01-04T06:14:34.439Z,57.42
2023-01-04T06:17:01.302Z,39.85
2023-01-04T06:19:28.140Z,44.92
2023-01-04T06:21:54.853Z,60.83
2023-01-04T06:24:21.516Z,60.30
2023-01-04T06:26:48.389Z,68.38
2023-01-04T06:29:15.261Z,57.33
2023-01-04T06:31:42.030Z,60.72
2023-01-04T06:34:11.526Z,65.80
2023-01-04T06:36:38.375Z,68.05
2023-01-04T06:39:05.438Z,53.85
2023-01-04T06:41:32.105Z,57.80
2023-01-04T06:43:59.739Z,56.83
2023-01-04T06:46:26.820Z,64.53
2023-01-04T06:48:54.145Z,59.85
2023-01-04T06:51:21.548Z,62.92
2023-01-04T06:53:48.625Z,62.83
2023-01-04T06:56:17.134Z,53.00
2023-01-04T06:58:43.826Z,63.58
2023-01-04T07:01:10.749Z,63.28
2023-01-04T07:03:37.417Z,63.33
2023-01-04T07:06:06.252Z,67.82
2023-01-04T07:08:34.032Z,58.78
2023-01-04T07:11:01.395Z,56.42
2023-01-04T07:13:28.242Z,55.63
2023-01-04T07:15:55.288Z,61.83
2023-01-04T07:18:22.293Z,64.63
2023-01-04T07:20:49.210Z,60.72
2023-01-04T07:23:15.908Z,56.15
2023-01-04T07:25:42.561Z,59.70
2023-01-04T07:28:09.311Z,57.58
2023-01-04T07:30:36.056Z,57.83
2023-01-04T07:33:02.890Z,49.53
2023-01-04T07:35:29.737Z,53.22
2023-01-04T07:37:59.132Z,54.13
2023-01-04T07:40:27.110Z,49.45
2023-01-04T07:42:57.409Z,49.92
2023-01-04T07:45:24.668Z,46.67
2023-01-04T07:47:51.287Z,58.05
2023-01-04T07:50:18.039Z,60.53
2023-01-04T07:52:44.697Z,56.55
2023-01-04T07:55:11.617Z,62.72
2023-01-04T07:57:38.366Z,55.17
2023-01-04T08:00:05.582Z,62.85
2023-01-04T08:02:34.688Z,58.60
2023-01-04T08:05:02.197Z,54.25
2023-01-04T08:07:29.389Z,66.70
2023-01-04T08:09:56.573Z,68.53
2023-01-04T08:12:23.213Z,60.15
2023-01-04T08:14:50.012Z,62.00
2023-01-04T08:17:16.703Z,66.10
2023-01-04T08:19:43.401Z,66.78
2023-01-04T08:22:10.118Z,73.82
2023-01-04T08:24:36.811Z,77.43
2023-01-04T08:27:04.020Z,64.40
2023-01-04T08:29:34.774Z,66.72
2023-01-04T08:32:02.353Z,55.05
2023-01-04T08:34:30.011Z,62.30
2023-01-04T08:36:56.766Z,69.53
2023-01-04T08:39:23.412Z,58.88
2023-01-04T08:42:02.627Z,57.72
2023-01-04T08:44:37.546Z,69.70
2023-01-04T08:47:04.462Z,68.57
2023-01-04T08:49:31.325Z,69.43
2023-01-04T08:51:58.014Z,68.68
2023-01-04T08:54:24.741Z,58.03
2023-01-04T08:56:51.451Z,60.20
2023-01-04T08:59:20.491Z,67.50
2023-01-04T09:01:47.506Z,63.70
2023-01-04T09:04:14.257Z,54.47
2023-01-04T09:06:41.014Z,57.88
2023-01-04T09:09:07.676Z,55.60
2023-01-04T09:11:35.410Z,53.83
2023-01-04T09:14:07.844Z,43.97
2023-01-04T09:16:35.959Z,40.70
2023-01-04T09:19:02.753Z,46.05
2023-01-04T09:21:29.561Z,56.38
2023-01-04T09:23:58.717Z,47.67
2023-01-04T09:26:25.554Z,47.55
2023-01-04T09:28:53.987Z,33.35
2023-01-04T09:31:24.229Z,30.75
2023-01-04T09:36:38.123Z,32.47
2023-01-04T09:39:06.236Z,25.92
2023-01-04T09:41:39.377Z,31.23
2023-01-04T09:44:09.065Z,26.92
2023-01-04T09:47:00.987Z,27.80
2023-01-04T09:49:41.746Z,26.27
2023-01-04T09:52:15.502Z,26.23
2023-01-04T09:54:49.534Z,26.52
2023-01-04T09:57:29.447Z,27.98
2023-01-04T10:00:17.854Z,24.65
2023-01-04T10:02:50.172Z,21.70
2023-01-04T10:05:23.002Z,30.75
2023-01-04T10:07:49.917Z,31.02
2023-01-04T10:10:19.994Z,29.73
2023-01-04T10:13:04.085Z,31.30
2023-01-04T10:15:55.714Z,32.40
2023-01-04T10:21:33.532Z,21.20
2023-01-04T10:24:19.087Z,20.23
2023-01-04T10:26:47.564Z,19.92
2023-01-04T10:29:27.081Z,20.90
2023-01-04T10:31:58.386Z,19.00
2023-01-04T10:34:39.463Z,19.88
2023-01-04T10:37:23.277Z,15.82
2023-01-04T10:39:55.695Z,18.85
2023-01-04T10:42:37.954Z,19.17
2023-01-04T10:45:31.328Z,19.52
2023-01-04T10:48:22.047Z,19.13
2023-01-04T10:50:48.687Z,23.13
2023-01-04T10:53:18.106Z,20.23
2023-01-04T10:56:24.109Z,25.75
2023-01-04T10:59:22.875Z,23.23
2023-01-04T11:01:57.709Z,26.20
2023-01-04T11:04:41.097Z,15.35
2023-01-04T11:07:19.670Z,19.50
2023-01-04T11:09:47.523Z,19.05
2023-01-04T11:12:16.689Z,21.05
2023-01-04T11:14:43.383Z,23.70
2023-01-04T11:17:11.457Z,26.70
2023-01-04T11:19:38.249Z,18.40
2023-01-04T11:22:22.101Z,23.65
2023-01-04T11:25:33.103Z,24.00
2023-01-04T11:27:48.971Z,18.40
2023-01-04T11:30:27.535Z,19.77
2023-01-04T11:33:11.108Z,17.73
2023-01-04T11:35:43.487Z,17.98
2023-01-04T11:38:16.061Z,20.00
2023-01-04T11:40:43.336Z,17.40
2023-01-04T11:43:20.347Z,24.17
2023-01-04T11:46:13.521Z,29.85
2023-01-04T11:48:42.591Z,31.52
2023-01-04T11:51:40.987Z,19.40
2023-01-04T11:54:13.631Z,17.00
2023-01-04T11:57:03.641Z,20.67
2023-01-04T11:59:32.806Z,17.80
2023-01-04T12:02:58.380Z,19.95
2023-01-04T12:05:28.960Z,17.25
2023-01-04T12:07:56.648Z,19.00
2023-01-04T12:10:27.128Z,26.88
2023-01-04T12:12:55.232Z,23.95
2023-01-04T12:15:35.721Z,24.33
2023-01-04T12:18:15.959Z,17.77
2023-01-04T12:20:42.653Z,17.80
2023-01-04T12:23:11.160Z,15.85
2023-01-04T12:26:04.375Z,20.63
2023-01-04T12:28:35.271Z,21.08
2023-01-04T12:31:20.784Z,21.20
2023-01-04T12:33:58.793Z,23.13
2023-01-04T12:36:40.230Z,18.33
2023-01-04T12:39:13.056Z,20.70
2023-01-04T12:42:01.782Z,25.02
2023-01-04T12:44:37.629Z,25.30
2023-01-04T12:47:37.979Z,21.88
2023-01-04T12:50:05.039Z,27.20
2023-01-04T12:52:42.999Z,22.10
2023-01-04T12:55:25.686Z,23.67
2023-01-04T12:57:52.585Z,19.67
2023-01-04T13:00:20.025Z,30.50
2023-01-04T13:02:51.209Z,19.40
2023-01-04T13:08:11.133Z,23.63
2023-01-04T13:10:44.329Z,20.50
2023-01-04T13:13:43.102Z,19.50
2023-01-04T13:16:32.642Z,19.15
2023-01-04T13:19:01.914Z,22.00
2023-01-04T13:21:40.224Z,20.58
2023-01-04T13:24:24.690Z,18.23
2023-01-04T13:26:52.183Z,22.13
2023-01-04T13:29:21.364Z,18.00
2023-01-04T13:31:51.003Z,19.90
2023-01-04T13:34:26.742Z,26.55
2023-01-04T13:37:11.057Z,27.13
2023-01-04T13:39:42.314Z,23.40
2023-01-04T13:42:29.736Z,16.92
2023-01-04T13:45:21.553Z,29.67
2023-01-04T13:47:50.996Z,23.77
2023-01-04T13:50:40.221Z,17.60
2023-01-04T13:53:08.868Z,25.73
2023-01-04T13:55:37.996Z,25.70
2023-01-04T13:58:07.293Z,42.10
2023-01-04T14:03:21.765Z,26.38
2023-01-04T14:05:50.231Z,21.27
2023-01-04T14:08:29.957Z,19.33
2023-01-04T14:10:57.696Z,23.70
2023-01-04T14:13:24.523Z,24.08
2023-01-04T14:16:26.774Z,29.73
2023-01-04T14:18:53.427Z,20.67
2023-01-04T14:21:34.549Z,23.98
2023-01-04T14:24:01.478Z,24.88
2023-01-04T14:26:33.283Z,26.85
2023-01-04T14:29:22.986Z,26.90
2023-01-04T14:31:50.508Z,26.38
2023-01-04T14:34:17.291Z,25.05
2023-01-04T14:36:44.014Z,32.35
2023-01-04T14:39:16.668Z,27.30
2023-01-04T14:41:53.007Z,17.23
2023-01-04T14:44:22.247Z,31.63
2023-01-04T14:46:52.583Z,23.98
2023-01-04T14:49:22.006Z,26.40
2023-01-04T14:51:57.748Z,19.98
2023-01-04T14:54:26.095Z,31.25
2023-01-04T14:56:53.924Z,30.75
2023-01-04T14:59:23.837Z,22.35
2023-01-04T15:01:52.394Z,22.33
2023-01-04T15:04:19.264Z,17.08
2023-01-04T15:07:00.046Z,31.92
2023-01-04T15:09:27.543Z,23.85
2023-01-04T15:11:54.322Z,27.73
2023-01-04T15:14:21.001Z,48.30
2023-01-04T15:16:48.004Z,77.18
2023-01-04T15:19:15.188Z,27.75
2023-01-04T15:21:41.988Z,32.65
2023-01-04T15:24:10.036Z,27.00
2023-01-04T15:26:37.501Z,23.45
2023-01-04T15:29:06.827Z,24.98
2023-01-04T15:31:38.980Z,27.00
2023-01-04T15:34:06.356Z,26.77
2023-01-04T15:36:33.184Z,38.00
2023-01-04T15:38:59.858Z,25.27
2023-01-04T15:41:45.372Z,30.88
2023-01-04T15:44:12.250Z,28.10
2023-01-04T15:46:39.328Z,28.70
2023-01-04T15:49:09.479Z,26.00
2023-01-04T15:51:38.880Z,28.25
2023-01-04T15:54:05.572Z,32.85
2023-01-04T15:56:32.204Z,32.72
2023-01-04T15:58:58.868Z,27.42
2023-01-04T16:01:25.623Z,26.05
2023-01-04T16:03:54.201Z,27.65
2023-01-04T16:06:21.717Z,28.80
2023-01-04T16:08:49.943Z,36.25
2023-01-04T16:11:22.489Z,27.92
2023-01-04T16:13:50.936Z,26.30
2023-01-04T16:16:19.065Z,29.92
2023-01-04T16:18:50.810Z,34.60
2023-01-04T16:21:21.190Z,24.60
2023-01-04T16:24:01.712Z,26.60
2023-01-04T16:26:31.830Z,31.20
2023-01-04T16:29:00.782Z,30.60
2023-01-04T16:31:35.923Z,28.35
2023-01-04T16:34:03.300Z,51.08
2023-01-04T16:36:30.224Z,37.22
2023-01-04T16:38:57.358Z,29.77
2023-01-04T16:41:27.197Z,27.63
2023-01-04T16:43:55.599Z,28.67
2023-01-04T16:46:26.541Z,27.50
2023-01-04T16:48:59.078Z,24.92
2023-01-04T16:51:28.173Z,30.48
2023-01-04T16:53:55.868Z,26.58
2023-01-04T16:56:24.063Z,30.90
2023-01-04T16:58:51.349Z,27.60
2023-01-04T17:01:23.093Z,39.13
2023-01-04T17:03:51.417Z,46.53
2023-01-04T17:06:20.313Z,33.80
2023-01-04T17:08:48.280Z,36.67
2023-01-04T17:14:07.461Z,43.20
2023-01-04T17:16:35.182Z,52.22
2023-01-04T17:19:02.482Z,52.42
2023-01-04T17:21:34.676Z,48.67
2023-01-04T17:24:01.966Z,26.42
2023-01-04T17:26:30.354Z,25.15
2023-01-04T17:28:58.842Z,30.88
2023-01-04T17:31:30.976Z,33.40
2023-01-04T17:33:57.751Z,23.63
2023-01-04T17:36:24.735Z,29.20
2023-01-04T17:38:51.377Z,26.83
2023-01-04T17:41:22.313Z,33.95
2023-01-04T17:43:53.821Z,32.40
2023-01-04T17:46:24.134Z,26.73
2023-01-04T17:49:17.838Z,26.02
2023-01-04T17:51:40.029Z,29.20
2023-01-04T17:54:08.410Z,24.90
2023-01-04T17:56:37.171Z,27.08
2023-01-04T17:59:06.836Z,32.78
2023-01-04T18:01:34.882Z,35.40
2023-01-04T18:04:02.787Z,30.48
2023-01-04T18:06:51.151Z,23.80
2023-01-04T18:09:22.184Z,23.63
2023-01-04T18:11:51.217Z,35.65
2023-01-04T18:14:17.992Z,42.08
2023-01-04T18:16:57.612Z,33.47
2023-01-04T18:19:29.071Z,35.55
2023-01-04T18:21:56.459Z,40.22
2023-01-04T18:24:39.390Z,37.83
2023-01-04T18:27:25.537Z,29.52
2023-01-04T18:29:54.463Z,33.90
2023-01-04T18:32:22.388Z,31.65
2023-01-04T18:34:49.317Z,26.48
2023-01-04T18:37:18.630Z,37.95
2023-01-04T18:39:45.792Z,33.85
2023-01-04T18:42:13.744Z,36.20
2023-01-04T18:44:47.443Z,31.52
2023-01-04T18:47:16.310Z,33.25
2023-01-04T18:49:43.091Z,36.15
2023-01-04T18:52:09.708Z,38.30
2023-01-04T18:54:37.046Z,33.72
2023-01-04T18:57:05.131Z,35.92
2023-01-04T18:59:31.922Z,33.55
2023-01-04T19:02:01.623Z,39.63
2023-01-04T19:04:34.108Z,26.42
2023-01-04T19:07:01.358Z,27.80
2023-01-04T19:09:28.143Z,29.73
2023-01-04T19:11:54.842Z,28.00
2023-01-04T19:14:24.478Z,29.02
2023-01-04T19:16:53.199Z,38.83
2023-01-04T19:19:20.093Z,35.58
2023-01-04T19:21:46.739Z,31.73
2023-01-04T19:24:13.392Z,28.50
2023-01-04T19:26:40.115Z,30.15
2023-01-04T19:29:08.678Z,36.17
2023-01-04T19:31:35.787Z,32.80
2023-01-04T19:34:02.604Z,33.00
2023-01-04T19:36:29.363Z,32.10
2023-01-04T19:38:56.761Z,34.05
2023-01-04T19:41:33.410Z,29.10
2023-01-04T19:44:05.883Z,28.35
2023-01-04T19:46:32.779Z,31.30
2023-01-04T19:48:59.868Z,28.98
2023-01-04T19:51:28.051Z,30.20
2023-01-04T19:53:54.844Z,22.88
2023-01-04T19:56:21.545Z,21.10
2023-01-04T19:58:48.298Z,22.27
2023-01-04T20:01:16.677Z,26.00
2023-01-04T20:03:44.051Z,26.02
2023-01-04T20:06:11.829Z,24.10
2023-01-04T20:08:39.242Z,23.02
2023-01-04T20:11:06.742Z,23.35
2023-01-04T20:13:34.306Z,27.25
2023-01-04T20:16:01.967Z,27.05
2023-01-04T20:18:28.771Z,25.05
2023-01-04T20:20:55.446Z,23.17
2023-01-04T20:23:22.713Z,22.98
2023-01-04T20:25:51.946Z,23.05
2023-01-04T20:28:21.201Z,19.15
2023-01-04T20:33:16.459Z,24.55
2023-01-04T20:35:44.371Z,24.60
2023-01-04T20:38:11.844Z,21.48
2023-01-04T20:40:39.319Z,28.35
2023-01-04T20:43:25.654Z,33.88
2023-01-04T20:45:52.453Z,28.60
2023-01-04T20:48:19.180Z,41.25
2023-01-04T20:50:45.953Z,28.33
2023-01-04T20:53:15.973Z,31.02
2023-01-04T20:55:44.235Z,24.10
2023-01-04T20:58:13.490Z,33.95
2023-01-04T21:03:09.358Z,68.40
2023-01-04T21:08:04.128Z,68.97
2023-01-04T21:10:30.908Z,55.50
2023-01-04T21:12:57.595Z,41.10
2023-01-04T21:15:24.332Z,48.08
2023-01-04T21:17:51.140Z,47.67
2023-01-04T21:20:17.820Z,48.08
2023-01-04T21:22:46.009Z,64.03
2023-01-04T21:25:12.679Z,44.70
2023-01-04T21:27:39.411Z,49.55
2023-01-04T21:30:06.529Z,46.45
2023-01-04T21:32:33.210Z,45.92
2023-01-04T21:34:59.912Z,41.65
2023-01-04T21:37:27.157Z,31.80
2023-01-04T21:39:53.825Z,31.08
2023-01-04T21:42:20.753Z,33.40
2023-01-04T21:44:47.446Z,33.88
2023-01-04T21:47:14.109Z,31.10
2023-01-04T21:49:43.940Z,28.75
2023-01-04T21:52:11.226Z,28.73
2023-01-04T21:54:38.865Z,33.72
2023-01-04T21:57:08.175Z,29.75
2023-01-04T22:02:02.234Z,29.05
2023-01-04T22:04:29.017Z,36.17
2023-01-04T22:06:55.750Z,31.38
2023-01-04T22:09:22.537Z,28.92
2023-01-04T22:11:50.309Z,29.23
2023-01-04T22:14:18.010Z,32.95
2023-01-04T22:16:44.817Z,31.77
2023-01-04T22:19:12.706Z,30.08
2023-01-04T22:21:39.997Z,36.08
2023-01-04T22:24:09.475Z,39.38
2023-01-04T22:26:36.449Z,44.97
2023-01-04T22:29:03.350Z,38.03
2023-01-04T22:31:30.115Z,38.15
2023-01-04T22:33:57.073Z,38.65
2023-01-04T22:36:24.000Z,32.78
2023-01-04T22:38:55.876Z,33.80
2023-01-04T22:41:25.074Z,41.03
2023-01-04T22:43:56.725Z,36.78
2023-01-04T22:46:24.696Z,42.97
2023-01-04T22:48:51.526Z,40.50
2023-01-04T22:51:20.651Z,35.00
2023-01-04T22:53:48.383Z,37.03
2023-01-04T22:56:19.617Z,41.05
2023-01-04T22:58:53.083Z,41.60
2023-01-04T23:01:22.102Z,49.80
2023-01-04T23:03:51.838Z,43.65
2023-01-04T23:06:19.131Z,45.42
2023-01-04T23:08:45.893Z,40.30
2023-01-04T23:11:15.936Z,40.58
2023-01-04T23:13:42.752Z,38.25
2023-01-04T23:16:14.456Z,33.50
2023-01-04T23:18:41.336Z,35.22
2023-01-04T23:21:08.933Z,34.97
2023-01-04T23:23:35.704Z,31.73
2023-01-04T23:26:15.722Z,33.30
2023-01-04T23:28:43.185Z,37.30
2023-01-04T23:31:12.332Z,31.77
2023-01-04T23:33:39.642Z,31.38
2023-01-04T23:36:09.399Z,29.63
2023-01-04T23:38:36.238Z,29.63
2023-01-04T23:41:02.964Z,30.00
2023-01-04T23:43:29.777Z,34.97
2023-01-04T23:45:56.422Z,31.52
2023-01-04T23:48:23.327Z,30.83
2023-01-04T23:50:56.817Z,32.65
2023-01-04T23:53:24.551Z,29.75
2023-01-04T23:55:59.540Z,29.90
2023-01-04T23:58:31.276Z,31.70
